Grover Beach, California
Current Conditions -  °F | °C
As of 7:56 AM on Thursday 30 Oct 2014 (Local Time) from KSBP Reporting Station
Clear Clear  
Wind Chill: 54°   Ceiling: Unl
Heat Index: 54°   Visibility: 10mi
Dew Point: 42°   Wind: 0mph
Humidity: 64%   Direction: NA
Pressure: 29.96"   Gusts: NA
Location:  35.12°N, 120.62°W
Report Text: KSBP 301456Z 00000KT 10SM CLR 12/06 A2996 RMK AO2 SLP145 T01220056 51006
Loading
Personal Weather Stations






























Interactive Weather Map
Tropical Storm Tracking
New forecast layout! Learn more

10-Day Weather Forecast

Advertisements
Track Severe Weather on mobile